createdAt,value
2018-10-09T00:00:08.540Z,12.47
2018-10-09T00:02:35.877Z,12.13
2018-10-09T00:05:03.330Z,12.00
2018-10-09T00:07:30.898Z,12.97
2018-10-09T00:09:58.250Z,13.63
2018-10-09T00:12:25.593Z,13.43
2018-10-09T00:14:52.912Z,14.07
2018-10-09T00:17:20.240Z,12.70
2018-10-09T00:19:47.538Z,13.87
2018-10-09T00:22:14.974Z,14.40
2018-10-09T00:24:42.327Z,15.30
2018-10-09T00:27:09.747Z,14.40
2018-10-09T00:29:37.070Z,15.80
2018-10-09T00:32:04.463Z,14.57
2018-10-09T00:34:31.979Z,13.80
2018-10-09T00:36:59.315Z,15.00
2018-10-09T00:39:26.681Z,14.70
2018-10-09T00:41:54.049Z,15.23
2018-10-09T00:44:21.457Z,16.43
2018-10-09T00:46:48.881Z,15.40
2018-10-09T00:49:16.249Z,16.70
2018-10-09T00:51:43.569Z,16.50
2018-10-09T00:54:10.935Z,15.30
2018-10-09T00:56:38.427Z,16.67
2018-10-09T00:59:05.833Z,15.60
2018-10-09T01:01:33.230Z,16.10
2018-10-09T01:04:00.619Z,16.43
2018-10-09T01:06:28.055Z,16.27
2018-10-09T01:08:55.434Z,17.17
2018-10-09T01:11:22.731Z,16.77
2018-10-09T01:13:50.134Z,16.50
2018-10-09T01:16:17.667Z,15.83
2018-10-09T01:18:44.992Z,16.00
2018-10-09T01:21:12.454Z,17.40
2018-10-09T01:23:39.770Z,16.43
2018-10-09T01:26:07.370Z,16.13
2018-10-09T01:28:35.144Z,16.40
2018-10-09T01:31:02.454Z,16.90
2018-10-09T01:33:29.789Z,16.33
2018-10-09T01:35:57.177Z,16.37
2018-10-09T01:38:24.645Z,15.40
2018-10-09T01:41:05.729Z,16.67
2018-10-09T01:43:33.075Z,15.27
2018-10-09T01:46:00.399Z,16.00
2018-10-09T01:48:27.985Z,15.80
2018-10-09T01:50:56.331Z,15.90
2018-10-09T01:53:23.637Z,14.63
2018-10-09T01:55:52.331Z,15.00
2018-10-09T01:58:19.793Z,14.20
2018-10-09T02:00:47.215Z,15.00
2018-10-09T02:03:14.612Z,14.37
2018-10-09T02:05:41.921Z,14.90
2018-10-09T02:08:09.278Z,16.00
2018-10-09T02:10:36.675Z,14.90
2018-10-09T02:13:04.047Z,13.90
2018-10-09T02:15:31.538Z,15.40
2018-10-09T02:17:58.915Z,15.13
2018-10-09T02:20:26.452Z,15.90
2018-10-09T02:22:53.812Z,15.60
2018-10-09T02:25:21.205Z,15.13
2018-10-09T02:27:48.726Z,14.60
2018-10-09T02:30:16.133Z,15.43
2018-10-09T02:32:43.584Z,13.63
2018-10-09T02:35:11.005Z,15.13
2018-10-09T02:37:38.438Z,17.10
2018-10-09T02:40:06.430Z,17.60
2018-10-09T02:42:34.141Z,17.97
2018-10-09T02:45:01.734Z,16.50
2018-10-09T02:47:29.149Z,17.30
2018-10-09T02:49:56.538Z,16.03
2018-10-09T02:52:23.944Z,15.63
2018-10-09T02:54:51.489Z,15.40
2018-10-09T02:57:19.419Z,17.50
2018-10-09T02:59:46.850Z,15.87
2018-10-09T03:02:14.376Z,15.57
2018-10-09T03:04:41.841Z,16.20
2018-10-09T03:07:09.240Z,15.87
2018-10-09T03:09:36.684Z,15.30
2018-10-09T03:12:04.142Z,16.17
2018-10-09T03:14:31.574Z,15.87
2018-10-09T03:16:58.954Z,15.13
2018-10-09T03:19:26.375Z,15.93
2018-10-09T03:21:53.799Z,18.27
2018-10-09T03:24:21.167Z,20.80
2018-10-09T03:26:48.605Z,21.03
2018-10-09T03:29:16.672Z,21.13
2018-10-09T03:31:44.155Z,20.27
2018-10-09T03:34:11.690Z,19.57
2018-10-09T03:36:39.497Z,21.07
2018-10-09T03:39:07.614Z,18.20
2018-10-09T03:41:34.952Z,20.00
2018-10-09T03:44:02.362Z,20.80
2018-10-09T03:46:29.799Z,18.90
2018-10-09T03:48:57.157Z,17.60
2018-10-09T03:51:24.604Z,19.87
2018-10-09T03:53:52.022Z,21.07
2018-10-09T03:56:19.663Z,21.90
2018-10-09T03:58:47.066Z,20.50
2018-10-09T04:01:14.686Z,21.50
2018-10-09T04:03:42.358Z,21.80
2018-10-09T04:06:09.816Z,20.40
2018-10-09T04:08:37.313Z,19.50
2018-10-09T04:11:04.844Z,20.70
2018-10-09T04:13:32.244Z,20.63
2018-10-09T04:15:59.793Z,21.33
2018-10-09T04:18:27.212Z,21.53
2018-10-09T04:20:54.764Z,20.53
2018-10-09T04:23:22.179Z,19.33
2018-10-09T04:25:50.791Z,20.27
2018-10-09T04:28:18.168Z,17.40
2018-10-09T04:30:45.835Z,16.53
2018-10-09T04:33:13.307Z,16.40
2018-10-09T04:35:41.002Z,16.77
2018-10-09T04:38:08.441Z,16.67
2018-10-09T04:40:35.774Z,16.97
2018-10-09T04:43:03.114Z,16.10
2018-10-09T04:45:30.653Z,16.43
2018-10-09T04:47:59.008Z,17.20
2018-10-09T04:50:26.639Z,16.17
2018-10-09T04:52:54.065Z,16.97
2018-10-09T04:55:21.854Z,16.17
2018-10-09T04:57:49.605Z,16.53
2018-10-09T05:00:17.045Z,15.83
2018-10-09T05:02:44.483Z,15.67
2018-10-09T05:05:12.120Z,16.93
2018-10-09T05:07:39.688Z,17.30
2018-10-09T05:10:07.555Z,16.70
2018-10-09T05:12:34.989Z,17.37
2018-10-09T05:15:03.689Z,16.23
2018-10-09T05:17:31.508Z,17.37
2018-10-09T05:19:58.888Z,16.60
2018-10-09T05:22:26.642Z,17.03
2018-10-09T05:24:54.091Z,15.97
2018-10-09T05:27:21.505Z,16.80
2018-10-09T05:29:49.440Z,15.73
2018-10-09T05:32:16.778Z,16.67
2018-10-09T05:34:44.232Z,16.03
2018-10-09T05:37:11.586Z,15.50
2018-10-09T05:39:39.018Z,16.17
2018-10-09T05:42:06.452Z,16.00
2018-10-09T05:44:33.990Z,16.40
2018-10-09T05:47:01.495Z,16.43
2018-10-09T05:49:28.915Z,16.57
2018-10-09T05:51:56.492Z,16.97
2018-10-09T05:54:23.876Z,15.80
2018-10-09T05:56:51.253Z,16.40
2018-10-09T05:59:18.600Z,16.43
2018-10-09T06:01:45.983Z,16.40
2018-10-09T06:04:13.390Z,15.83
2018-10-09T06:06:40.928Z,14.93
2018-10-09T06:09:09.219Z,16.07
2018-10-09T06:11:36.952Z,14.30
2018-10-09T06:14:04.677Z,14.97
2018-10-09T06:16:32.112Z,13.73
2018-10-09T06:18:59.545Z,13.87
2018-10-09T06:21:27.035Z,14.23
2018-10-09T06:26:32.477Z,14.10
2018-10-09T06:28:59.894Z,14.40
2018-10-09T06:31:27.352Z,14.60
2018-10-09T06:33:55.197Z,13.20
2018-10-09T06:36:22.659Z,14.93
2018-10-09T06:38:49.994Z,15.27
2018-10-09T06:41:17.728Z,14.20
2018-10-09T06:43:45.188Z,15.63
2018-10-09T06:46:17.093Z,14.47
2018-10-09T06:48:44.445Z,14.90
2018-10-09T06:51:12.224Z,15.17
2018-10-09T06:53:39.580Z,15.47
2018-10-09T06:56:07.151Z,15.63
2018-10-09T06:58:35.030Z,14.47
2018-10-09T07:01:02.602Z,14.00
2018-10-09T07:03:30.014Z,13.37
2018-10-09T07:05:57.404Z,12.90
2018-10-09T07:08:24.936Z,12.43
2018-10-09T07:10:52.309Z,13.27
2018-10-09T07:13:19.776Z,12.57
2018-10-09T07:15:47.646Z,12.13
2018-10-09T07:18:16.882Z,11.73
2018-10-09T07:20:44.231Z,12.80
2018-10-09T07:23:11.582Z,12.53
2018-10-09T07:25:38.943Z,13.30
2018-10-09T07:28:06.315Z,12.47
2018-10-09T07:30:33.609Z,12.23
2018-10-09T07:33:00.981Z,11.63
2018-10-09T07:35:28.422Z,13.53
2018-10-09T07:37:55.849Z,12.10
2018-10-09T07:40:23.160Z,11.80
2018-10-09T07:42:50.476Z,11.27
2018-10-09T07:45:17.818Z,11.23
2018-10-09T07:47:45.286Z,11.00
2018-10-09T07:50:12.642Z,12.30
2018-10-09T07:52:40.083Z,11.37
2018-10-09T07:55:07.435Z,11.83
2018-10-09T07:57:34.966Z,11.40
2018-10-09T08:00:02.480Z,11.30
2018-10-09T08:02:29.925Z,11.00
2018-10-09T08:04:57.581Z,10.63
2018-10-09T08:07:24.957Z,12.27
2018-10-09T08:09:52.304Z,12.30
2018-10-09T08:12:19.750Z,13.50
2018-10-09T08:14:47.292Z,14.97
2018-10-09T08:17:14.746Z,14.80
2018-10-09T08:19:42.063Z,17.33
2018-10-09T08:22:09.523Z,16.73
2018-10-09T08:24:36.942Z,17.73
2018-10-09T08:27:04.592Z,16.93
2018-10-09T08:29:32.210Z,17.13
2018-10-09T08:31:59.748Z,17.50
2018-10-09T08:34:27.136Z,17.50
2018-10-09T08:36:54.632Z,17.13
2018-10-09T08:39:21.987Z,19.97
2018-10-09T08:41:49.597Z,19.20
2018-10-09T08:44:17.366Z,19.90
2018-10-09T08:46:44.728Z,18.83
2018-10-09T08:49:12.178Z,19.67
2018-10-09T08:51:39.565Z,20.80
2018-10-09T08:54:06.935Z,21.33
2018-10-09T08:56:34.342Z,22.20
2018-10-09T08:59:02.296Z,19.20
2018-10-09T09:01:29.661Z,23.03
2018-10-09T09:03:57.354Z,21.30
2018-10-09T09:06:24.679Z,22.90
2018-10-09T09:08:52.355Z,22.80
2018-10-09T09:11:19.783Z,23.20
2018-10-09T09:13:47.124Z,23.90
2018-10-09T09:16:15.002Z,23.50
2018-10-09T09:18:43.095Z,21.17
2018-10-09T09:21:11.346Z,20.80
2018-10-09T09:23:38.794Z,20.13
2018-10-09T09:26:06.416Z,20.40
2018-10-09T09:28:33.763Z,17.90
2018-10-09T09:31:01.887Z,21.60
2018-10-09T09:33:32.441Z,22.20
2018-10-09T09:35:59.812Z,23.30
2018-10-09T09:38:27.277Z,22.50
2018-10-09T09:40:54.691Z,22.97
2018-10-09T09:43:22.061Z,20.73
2018-10-09T09:45:49.556Z,20.20
2018-10-09T09:48:16.901Z,21.03
2018-10-09T09:50:44.590Z,18.63
2018-10-09T09:53:12.013Z,21.37
2018-10-09T09:55:39.346Z,22.53
2018-10-09T09:58:07.281Z,21.50
2018-10-09T10:00:43.789Z,20.97
2018-10-09T10:03:11.229Z,19.63
2018-10-09T10:05:38.610Z,19.17
2018-10-09T10:08:06.102Z,21.33
2018-10-09T10:10:33.413Z,20.13
2018-10-09T10:13:00.904Z,19.90
2018-10-09T10:15:28.323Z,18.60
2018-10-09T10:17:55.969Z,20.30
2018-10-09T10:20:23.407Z,21.93
2018-10-09T10:22:50.885Z,21.73
2018-10-09T10:25:18.394Z,16.90
2018-10-09T10:27:46.180Z,16.63
2018-10-09T10:30:13.547Z,17.10
2018-10-09T10:32:40.959Z,17.50
2018-10-09T10:35:08.333Z,19.10
2018-10-09T10:37:35.791Z,20.13
2018-10-09T10:40:03.642Z,18.80
2018-10-09T10:42:31.095Z,19.73
2018-10-09T10:44:58.875Z,16.80
2018-10-09T10:47:26.347Z,20.20
2018-10-09T10:49:53.718Z,17.93
2018-10-09T10:52:21.279Z,18.57
2018-10-09T10:54:48.668Z,20.00
2018-10-09T10:57:16.017Z,16.13
2018-10-09T10:59:43.369Z,22.27
2018-10-09T11:02:11.102Z,23.27
2018-10-09T11:04:38.760Z,20.90
2018-10-09T11:07:06.369Z,22.63
2018-10-09T11:09:33.838Z,22.47
2018-10-09T11:12:01.326Z,18.30
2018-10-09T11:14:28.717Z,19.17
2018-10-09T11:16:56.246Z,23.30
2018-10-09T11:19:24.128Z,24.10
2018-10-09T11:21:51.619Z,23.10
2018-10-09T11:24:19.134Z,24.03
2018-10-09T11:26:46.553Z,22.77
2018-10-09T11:29:13.954Z,23.70
2018-10-09T11:31:41.534Z,21.03
2018-10-09T11:34:09.076Z,23.00
2018-10-09T11:36:36.404Z,24.27
2018-10-09T11:39:05.102Z,26.33
2018-10-09T11:41:32.742Z,22.87
2018-10-09T11:44:00.788Z,21.10
2018-10-09T11:46:28.501Z,23.03
2018-10-09T11:48:55.897Z,24.90
2018-10-09T11:51:24.269Z,22.40
2018-10-09T11:53:51.642Z,24.40
2018-10-09T11:56:19.029Z,25.30
2018-10-09T11:58:46.672Z,28.03
2018-10-09T12:01:14.072Z,26.63
2018-10-09T12:03:41.744Z,22.93
2018-10-09T12:06:09.151Z,23.93
2018-10-09T12:08:36.533Z,24.03
2018-10-09T12:11:04.005Z,25.20
2018-10-09T12:13:31.732Z,25.40
2018-10-09T12:15:59.274Z,24.67
2018-10-09T12:18:26.553Z,22.73
2018-10-09T12:20:54.013Z,22.47
2018-10-09T12:23:21.354Z,22.47
2018-10-09T12:25:48.820Z,19.17
2018-10-09T12:28:16.422Z,23.40
2018-10-09T12:30:43.857Z,22.70
2018-10-09T12:33:11.579Z,21.57
2018-10-09T12:35:39.078Z,21.00
2018-10-09T12:38:06.531Z,21.77
2018-10-09T12:40:34.248Z,23.43
2018-10-09T12:43:01.604Z,21.70
2018-10-09T12:45:29.082Z,22.37
2018-10-09T12:47:56.603Z,24.80
2018-10-09T12:50:24.441Z,23.93
2018-10-09T12:52:51.931Z,22.87
2018-10-09T12:55:19.539Z,23.97
2018-10-09T12:57:47.532Z,23.90
2018-10-09T13:00:15.008Z,22.23
2018-10-09T13:02:42.567Z,22.10
2018-10-09T13:05:10.292Z,24.07
2018-10-09T13:07:37.900Z,25.03
2018-10-09T13:10:05.483Z,23.00
2018-10-09T13:12:32.935Z,24.63
2018-10-09T13:15:00.425Z,24.67
2018-10-09T13:17:27.978Z,23.23
2018-10-09T13:19:55.328Z,23.40
2018-10-09T13:22:23.496Z,22.17
2018-10-09T13:24:50.644Z,22.20
2018-10-09T13:27:18.185Z,20.70
2018-10-09T13:29:45.567Z,21.97
2018-10-09T13:32:12.974Z,22.63
2018-10-09T13:34:40.451Z,20.73
2018-10-09T13:37:08.112Z,20.07
2018-10-09T13:39:35.660Z,20.60
2018-10-09T13:42:04.186Z,20.50
2018-10-09T13:47:11.144Z,18.83
2018-10-09T13:49:38.491Z,19.10
2018-10-09T13:52:06.488Z,18.73
2018-10-09T13:54:33.911Z,18.33
2018-10-09T13:57:01.353Z,18.83
2018-10-09T13:59:28.709Z,19.07
2018-10-09T14:01:56.053Z,18.87
2018-10-09T14:04:23.530Z,19.00
2018-10-09T14:06:50.952Z,18.93
2018-10-09T14:09:18.308Z,18.20
2018-10-09T14:11:45.815Z,18.50
2018-10-09T14:14:13.172Z,18.03
2018-10-09T14:16:40.659Z,17.73
2018-10-09T14:19:08.205Z,18.30
2018-10-09T14:21:35.635Z,18.00
2018-10-09T14:24:03.122Z,17.97
2018-10-09T14:26:30.469Z,19.50
2018-10-09T14:28:57.876Z,18.50
2018-10-09T14:31:25.233Z,18.83
2018-10-09T14:33:52.705Z,20.00
2018-10-09T14:36:20.136Z,20.43
2018-10-09T14:38:47.544Z,20.57
2018-10-09T14:41:15.021Z,21.20
2018-10-09T14:43:42.386Z,20.77
2018-10-09T14:46:09.919Z,21.53
2018-10-09T14:48:37.349Z,22.20
2018-10-09T14:51:04.675Z,20.30
2018-10-09T14:53:32.054Z,19.27
2018-10-09T14:55:59.425Z,20.87
2018-10-09T14:58:26.921Z,20.77
2018-10-09T15:00:54.482Z,21.80
2018-10-09T15:03:21.859Z,20.97
2018-10-09T15:05:49.263Z,21.97
2018-10-09T15:08:16.910Z,22.70
2018-10-09T15:10:44.270Z,21.40
2018-10-09T15:13:11.607Z,21.27
2018-10-09T15:15:38.963Z,22.03
2018-10-09T15:18:06.303Z,21.10
2018-10-09T15:20:33.629Z,20.47
2018-10-09T15:23:00.987Z,21.73
2018-10-09T15:25:28.296Z,22.30
2018-10-09T15:27:55.607Z,21.17
2018-10-09T15:30:23.361Z,20.17
2018-10-09T15:32:50.696Z,20.97
2018-10-09T15:35:18.104Z,21.23
2018-10-09T15:37:45.810Z,20.40
2018-10-09T15:40:13.157Z,21.10
2018-10-09T15:42:40.502Z,20.60
2018-10-09T15:45:08.113Z,19.43
2018-10-09T15:47:35.543Z,19.40
2018-10-09T15:50:02.884Z,21.10
2018-10-09T15:52:30.312Z,19.90
2018-10-09T15:54:57.715Z,20.93
2018-10-09T15:57:25.132Z,20.07
2018-10-09T15:59:52.595Z,20.40
2018-10-09T16:02:20.061Z,21.37
2018-10-09T16:04:47.461Z,19.77
2018-10-09T16:07:14.818Z,19.97
2018-10-09T16:09:42.212Z,20.30
2018-10-09T16:12:09.582Z,20.97
2018-10-09T16:14:36.943Z,21.20
2018-10-09T16:17:04.360Z,21.33
2018-10-09T16:19:31.837Z,20.03
2018-10-09T16:21:59.123Z,20.97
2018-10-09T16:24:26.578Z,20.83
2018-10-09T16:26:53.901Z,20.60
2018-10-09T16:29:21.345Z,19.90
2018-10-09T16:31:48.678Z,21.67
2018-10-09T16:34:16.012Z,20.30
2018-10-09T16:36:43.339Z,19.87
2018-10-09T16:39:12.665Z,19.47
2018-10-09T16:41:40.302Z,19.60
2018-10-09T16:44:07.684Z,19.93
2018-10-09T16:46:35.093Z,20.40
2018-10-09T16:49:02.669Z,19.57
2018-10-09T16:51:30.119Z,19.03
2018-10-09T16:53:57.498Z,18.50
2018-10-09T16:56:25.009Z,20.73
2018-10-09T16:58:52.321Z,21.13
2018-10-09T17:01:19.653Z,20.23
2018-10-09T17:03:47.118Z,19.37
2018-10-09T17:06:14.510Z,22.83
2018-10-09T17:08:42.280Z,23.93
2018-10-09T17:11:09.583Z,22.07
2018-10-09T17:13:36.960Z,22.20
2018-10-09T17:16:04.320Z,25.10
2018-10-09T17:18:31.800Z,23.70
2018-10-09T17:20:59.100Z,24.67
2018-10-09T17:23:26.398Z,24.60
2018-10-09T17:25:53.805Z,25.57
2018-10-09T17:28:21.130Z,24.00
2018-10-09T17:30:48.561Z,23.77
2018-10-09T17:33:15.980Z,23.73
2018-10-09T17:35:43.581Z,24.90
2018-10-09T17:38:10.920Z,24.80
2018-10-09T17:40:38.240Z,25.40
2018-10-09T17:43:05.594Z,26.53
2018-10-09T17:45:33.001Z,27.73
2018-10-09T17:48:00.306Z,27.37
2018-10-09T17:50:27.641Z,29.90
2018-10-09T17:52:55.020Z,26.87
2018-10-09T17:55:22.392Z,28.53
2018-10-09T17:57:51.044Z,28.07
2018-10-09T18:00:19.236Z,30.83
2018-10-09T18:02:46.586Z,28.33
2018-10-09T18:05:13.938Z,28.90
2018-10-09T18:07:41.307Z,30.30
2018-10-09T18:10:08.662Z,29.33
2018-10-09T18:12:36.096Z,28.80
2018-10-09T18:15:03.471Z,27.90
2018-10-09T18:17:30.850Z,27.70
2018-10-09T18:19:58.501Z,28.50
2018-10-09T18:22:26.186Z,29.60
2018-10-09T18:24:53.748Z,28.57
2018-10-09T18:27:21.106Z,29.27
2018-10-09T18:29:48.491Z,27.43
2018-10-09T18:32:15.848Z,29.50
2018-10-09T18:34:43.284Z,28.83
2018-10-09T18:37:10.681Z,28.70
2018-10-09T18:39:38.064Z,28.43
2018-10-09T18:42:05.500Z,29.23
2018-10-09T18:44:32.759Z,28.67
2018-10-09T18:47:00.182Z,28.50
2018-10-09T18:49:27.537Z,27.57
2018-10-09T18:51:56.021Z,28.10
2018-10-09T18:54:23.740Z,28.83
2018-10-09T18:56:51.227Z,27.30
2018-10-09T18:59:18.665Z,27.43
2018-10-09T19:01:46.161Z,28.03
2018-10-09T19:04:13.588Z,26.13
2018-10-09T19:06:41.034Z,27.83
2018-10-09T19:09:09.615Z,28.17
2018-10-09T19:11:38.001Z,26.63
2018-10-09T19:14:05.602Z,29.27
2018-10-09T19:16:33.207Z,28.60
2018-10-09T19:19:00.873Z,27.20
2018-10-09T19:21:28.478Z,26.27
2018-10-09T19:23:55.923Z,26.50
2018-10-09T19:26:23.192Z,28.53
2018-10-09T19:28:50.652Z,27.50
2018-10-09T19:31:18.068Z,28.40
2018-10-09T19:33:45.439Z,27.47
2018-10-09T19:36:12.892Z,27.80
2018-10-09T19:38:40.355Z,26.80
2018-10-09T19:41:07.664Z,26.33
2018-10-09T19:43:34.982Z,27.20
2018-10-09T19:46:03.295Z,26.73
2018-10-09T19:48:30.634Z,26.03
2018-10-09T19:50:58.221Z,26.63
2018-10-09T19:53:25.572Z,27.63
2018-10-09T19:55:52.868Z,28.63
2018-10-09T19:58:20.282Z,28.47
2018-10-09T20:00:47.718Z,25.77
2018-10-09T20:03:15.338Z,28.30
2018-10-09T20:05:42.886Z,26.90
2018-10-09T20:08:10.380Z,25.50
2018-10-09T20:10:37.720Z,25.93
2018-10-09T20:13:05.144Z,26.70
2018-10-09T20:15:32.703Z,24.60
2018-10-09T20:18:00.089Z,25.37
2018-10-09T20:20:27.649Z,25.50
2018-10-09T20:22:55.335Z,25.80
2018-10-09T20:25:22.709Z,25.73
2018-10-09T20:27:50.275Z,25.03
2018-10-09T20:30:17.976Z,22.43
2018-10-09T20:32:45.271Z,23.63
2018-10-09T20:35:12.601Z,23.30
2018-10-09T20:37:40.018Z,23.53
2018-10-09T20:42:34.539Z,24.30
2018-10-09T20:45:01.916Z,22.00
2018-10-09T20:47:34.609Z,22.73
2018-10-09T20:50:01.996Z,24.20
2018-10-09T20:52:29.420Z,24.50
2018-10-09T20:54:56.732Z,24.73
2018-10-09T20:57:24.343Z,25.30
2018-10-09T20:59:51.870Z,24.03
2018-10-09T21:02:19.279Z,26.47
2018-10-09T21:04:46.680Z,24.33
2018-10-09T21:07:14.067Z,26.70
2018-10-09T21:09:41.477Z,26.00
2018-10-09T21:12:08.825Z,26.17
2018-10-09T21:14:36.177Z,25.60
2018-10-09T21:17:03.566Z,26.73
2018-10-09T21:19:30.932Z,28.27
2018-10-09T21:21:58.594Z,28.37
2018-10-09T21:24:25.999Z,26.97
2018-10-09T21:26:53.421Z,29.97
2018-10-09T21:29:20.829Z,30.77
2018-10-09T21:31:48.287Z,30.30
2018-10-09T21:34:15.723Z,29.93
2018-10-09T21:36:43.086Z,29.63
2018-10-09T21:39:10.938Z,30.57
2018-10-09T21:41:38.581Z,30.27
2018-10-09T21:44:06.022Z,29.70
2018-10-09T21:46:34.115Z,31.03
2018-10-09T21:49:01.896Z,31.20
2018-10-09T21:51:29.236Z,31.47
2018-10-09T21:53:56.620Z,30.37
2018-10-09T21:56:24.067Z,31.40
2018-10-09T21:58:51.567Z,33.50
2018-10-09T22:01:27.885Z,31.00
2018-10-09T22:03:55.254Z,31.83
2018-10-09T22:06:22.607Z,31.00
2018-10-09T22:08:50.356Z,30.10
2018-10-09T22:11:17.713Z,32.40
2018-10-09T22:13:45.120Z,33.23
2018-10-09T22:16:12.532Z,32.37
2018-10-09T22:18:40.238Z,33.00
2018-10-09T22:21:07.594Z,32.70
2018-10-09T22:23:35.024Z,31.00
2018-10-09T22:26:03.735Z,31.03
2018-10-09T22:28:31.259Z,31.87
2018-10-09T22:30:58.639Z,34.60
2018-10-09T22:33:25.999Z,33.20
2018-10-09T22:35:53.379Z,32.00
2018-10-09T22:38:20.838Z,34.07
2018-10-09T22:40:48.247Z,32.13
2018-10-09T22:43:15.889Z,32.20
2018-10-09T22:45:43.310Z,33.50
2018-10-09T22:48:10.753Z,31.30
2018-10-09T22:50:38.545Z,32.70
2018-10-09T22:53:06.024Z,33.13
2018-10-09T22:55:33.479Z,33.10
2018-10-09T22:58:02.209Z,36.93
2018-10-09T23:00:29.784Z,34.67
2018-10-09T23:02:57.488Z,36.30
2018-10-09T23:05:25.113Z,35.47
2018-10-09T23:07:53.736Z,33.53
2018-10-09T23:11:01.887Z,34.80
2018-10-09T23:13:29.204Z,33.00
2018-10-09T23:15:56.630Z,35.33
2018-10-09T23:18:24.008Z,35.57
2018-10-09T23:20:51.351Z,34.60
2018-10-09T23:23:18.654Z,35.77
2018-10-09T23:25:46.004Z,34.30
2018-10-09T23:28:13.361Z,32.77
2018-10-09T23:30:40.679Z,34.73
2018-10-09T23:33:08.052Z,34.40
2018-10-09T23:35:35.368Z,33.27
2018-10-09T23:38:02.896Z,33.13
2018-10-09T23:40:30.329Z,35.40
2018-10-09T23:42:57.661Z,34.53
2018-10-09T23:45:25.399Z,34.30
2018-10-09T23:47:57.077Z,34.83
2018-10-09T23:50:24.414Z,34.97
2018-10-09T23:52:54.349Z,33.13
2018-10-09T23:55:21.660Z,31.83
2018-10-09T23:57:49.014Z,33.90
